Aviation Digital Data Service (ADDS)

Output produced by METARs form (2117 UTC 20 August 2019)
found at http://www.aviationweather.gov/metar/data/
 
Forecast for: LYTV (TIVAT , CS)
Text: TAF LYTV 201700Z 2018/2118 VRB02KT CAVOK TX34/2114Z TN19/2103Z
Forecast period: 1800 UTC 20 August 2019 to 1800 UTC 21 August 2019
Forecast type: FROM: standard forecast or significant change
Winds: variable direction winds at 2 MPH (2 knots; 1.0 m/s)
Visibility: 6 or more miles 10+ km)
Ceiling: unknown
Clouds: missing
Weather: no significant weather forecast for this period